createdAt,value
2022-12-12T00:00:34.885Z,-0.11
2022-12-12T00:03:01.786Z,-0.03
2022-12-12T00:05:28.313Z,-0.16
2022-12-12T00:07:54.958Z,-0.15
2022-12-12T00:10:21.926Z,-0.02
2022-12-12T00:12:48.368Z,0.14
2022-12-12T00:15:17.740Z,0.18
2022-12-12T00:17:44.368Z,0.19
2022-12-12T00:20:11.089Z,0.23
2022-12-12T00:22:37.740Z,0.26
2022-12-12T00:25:04.971Z,0.27
2022-12-12T00:27:33.342Z,0.19
2022-12-12T00:30:00.049Z,-0.05
2022-12-12T00:32:26.700Z,-0.21
2022-12-12T00:34:53.272Z,-0.13
2022-12-12T00:37:19.811Z,-0.07
2022-12-12T00:39:46.829Z,-0.19
2022-12-12T00:42:13.504Z,-0.32
2022-12-12T00:44:40.366Z,-0.46
2022-12-12T00:47:06.988Z,-0.42
2022-12-12T00:49:33.660Z,-0.26
2022-12-12T00:52:00.146Z,-0.15
2022-12-12T00:54:26.617Z,-0.15
2022-12-12T00:56:53.100Z,-0.13
2022-12-12T00:59:19.803Z,-0.02
2022-12-12T01:01:47.204Z,-0.06
2022-12-12T01:04:14.592Z,-0.18
2022-12-12T01:06:41.308Z,-0.33
2022-12-12T01:09:07.866Z,-0.41
2022-12-12T01:11:34.492Z,-0.57
2022-12-12T01:14:01.272Z,-0.66
2022-12-12T01:16:30.619Z,-0.65
2022-12-12T01:18:59.192Z,-0.58
2022-12-12T01:21:25.845Z,-0.47
2022-12-12T01:23:52.455Z,-0.40
2022-12-12T01:26:23.068Z,-0.41
2022-12-12T01:28:49.711Z,-0.31
2022-12-12T01:31:16.575Z,-0.21
2022-12-12T01:33:45.969Z,-0.25
2022-12-12T01:36:16.427Z,-0.26
2022-12-12T01:38:48.552Z,-0.16
2022-12-12T01:41:17.152Z,-0.06
2022-12-12T01:43:44.396Z,-0.04
2022-12-12T01:46:41.852Z,-0.20
2022-12-12T01:49:27.233Z,-0.29
2022-12-12T01:52:03.072Z,-0.36
2022-12-12T01:54:36.080Z,-0.41
2022-12-12T01:57:09.732Z,-0.33
2022-12-12T01:59:39.072Z,-0.16
2022-12-12T02:02:06.364Z,0.00
2022-12-12T02:04:33.921Z,0.08
2022-12-12T02:07:01.454Z,0.09
2022-12-12T02:09:28.493Z,0.16
2022-12-12T02:11:57.240Z,0.24
2022-12-12T02:14:33.631Z,0.15
2022-12-12T02:17:32.853Z,0.08
2022-12-12T02:20:20.876Z,-0.05
2022-12-12T02:23:26.642Z,0.04
2022-12-12T02:26:33.394Z,0.09
2022-12-12T02:30:01.276Z,-0.02
2022-12-12T02:32:42.788Z,0.01
2022-12-12T02:35:47.687Z,0.09
2022-12-12T02:38:51.013Z,0.12
2022-12-12T02:41:50.302Z,0.14
2022-12-12T02:44:54.369Z,-0.01
2022-12-12T02:47:32.161Z,-0.08
2022-12-12T02:50:13.895Z,-0.01
2022-12-12T02:52:43.371Z,0.01
2022-12-12T02:55:10.150Z,-0.09
2022-12-12T02:57:36.799Z,-0.06
2022-12-12T03:00:21.544Z,-0.19
2022-12-12T03:03:46.702Z,-0.17
2022-12-12T03:07:21.952Z,-0.28
2022-12-12T03:10:28.582Z,-0.21
2022-12-12T03:13:32.080Z,-0.30
2022-12-12T03:16:09.827Z,-0.15
2022-12-12T03:19:07.165Z,-0.00
2022-12-12T03:22:01.753Z,0.03
2022-12-12T03:24:44.875Z,0.02
2022-12-12T03:27:20.211Z,-0.19
2022-12-12T03:29:55.804Z,-0.35
2022-12-12T03:32:42.867Z,-0.41
2022-12-12T03:35:35.981Z,-0.26
2022-12-12T03:38:14.290Z,-0.27
2022-12-12T03:40:55.666Z,-0.37
2022-12-12T03:43:28.312Z,-0.47
2022-12-12T03:46:19.645Z,-0.33
2022-12-12T03:48:56.675Z,-0.17
2022-12-12T03:51:42.560Z,-0.17
2022-12-12T03:54:24.084Z,-0.05
2022-12-12T03:57:05.652Z,0.10
2022-12-12T03:59:53.273Z,0.18
2022-12-12T04:02:36.731Z,0.16
2022-12-12T04:06:16.086Z,0.09
2022-12-12T04:09:03.218Z,0.22
2022-12-12T04:11:59.816Z,0.26
2022-12-12T04:14:51.921Z,0.24
2022-12-12T04:17:32.003Z,0.18
2022-12-12T04:20:42.911Z,0.19
2022-12-12T04:23:44.664Z,0.20
2022-12-12T04:26:39.617Z,0.23
2022-12-12T04:29:18.617Z,0.04
2022-12-12T04:32:15.784Z,0.11
2022-12-12T04:35:09.909Z,0.14
2022-12-12T04:37:54.801Z,0.27
2022-12-12T04:40:44.028Z,0.29
2022-12-12T04:43:20.737Z,0.19
2022-12-12T04:45:54.408Z,-0.31
2022-12-12T04:48:38.118Z,-0.09
2022-12-12T04:51:09.294Z,0.10
2022-12-12T04:53:46.967Z,0.09
2022-12-12T04:56:19.683Z,0.03
2022-12-12T04:58:46.185Z,-0.05
2022-12-12T05:01:53.115Z,0.04
2022-12-12T05:04:28.998Z,0.14
2022-12-12T05:07:08.406Z,0.14
2022-12-12T05:09:36.527Z,0.10
2022-12-12T05:12:03.242Z,0.13
2022-12-12T05:14:31.730Z,0.05
2022-12-12T05:17:06.723Z,-0.02
2022-12-12T05:19:33.285Z,0.12
2022-12-12T05:21:59.811Z,0.26
2022-12-12T05:24:31.064Z,0.35
2022-12-12T05:27:00.772Z,0.43
2022-12-12T05:29:27.323Z,0.51
2022-12-12T05:31:53.785Z,0.49
2022-12-12T05:34:20.276Z,0.32
2022-12-12T05:36:47.799Z,0.33
2022-12-12T05:39:14.339Z,0.39
2022-12-12T05:41:40.859Z,0.50
2022-12-12T05:44:07.307Z,0.59
2022-12-12T05:46:33.911Z,0.62
2022-12-12T05:49:00.420Z,0.66
2022-12-12T05:51:26.960Z,0.66
2022-12-12T05:53:53.457Z,0.63
2022-12-12T05:56:19.919Z,0.43
2022-12-12T05:58:46.474Z,0.33
2022-12-12T06:01:12.972Z,0.23
2022-12-12T06:03:39.463Z,0.28
2022-12-12T06:06:06.344Z,0.40
2022-12-12T06:08:32.974Z,0.48
2022-12-12T06:10:59.635Z,0.42
2022-12-12T06:13:26.204Z,0.27
2022-12-12T06:15:52.722Z,0.30
2022-12-12T06:18:19.573Z,0.40
2022-12-12T06:20:46.074Z,0.47
2022-12-12T06:23:12.817Z,0.50
2022-12-12T06:25:39.526Z,0.53
2022-12-12T06:28:06.036Z,0.55
2022-12-12T06:30:32.536Z,0.52
2022-12-12T06:32:59.041Z,0.55
2022-12-12T06:35:25.541Z,0.59
2022-12-12T06:37:52.068Z,0.58
2022-12-12T06:40:18.813Z,0.42
2022-12-12T06:42:48.597Z,0.19
2022-12-12T06:45:16.555Z,-0.06
2022-12-12T06:47:43.242Z,0.01
2022-12-12T06:50:10.237Z,0.17
2022-12-12T06:52:36.697Z,0.28
2022-12-12T06:55:03.689Z,0.35
2022-12-12T06:57:30.154Z,0.35
2022-12-12T06:59:56.679Z,0.35
2022-12-12T07:02:29.258Z,0.26
2022-12-12T07:04:56.447Z,0.29
2022-12-12T07:07:22.950Z,0.40
2022-12-12T07:09:49.651Z,0.51
2022-12-12T07:12:16.166Z,0.56
2022-12-12T07:14:42.627Z,0.59
2022-12-12T07:17:09.090Z,0.62
2022-12-12T07:19:35.768Z,0.66
2022-12-12T07:22:09.137Z,0.67
2022-12-12T07:24:36.582Z,0.64
2022-12-12T07:27:03.990Z,0.66
2022-12-12T07:29:30.666Z,0.63
2022-12-12T07:31:57.336Z,0.52
2022-12-12T07:34:24.188Z,0.43
2022-12-12T07:36:56.548Z,0.25
2022-12-12T07:39:31.093Z,0.14
2022-12-12T07:41:57.595Z,0.14
2022-12-12T07:44:24.369Z,0.24
2022-12-12T07:46:50.904Z,0.38
2022-12-12T07:49:17.884Z,0.42
2022-12-12T07:51:48.953Z,0.24
2022-12-12T07:54:16.045Z,0.06
2022-12-12T07:56:42.515Z,0.04
2022-12-12T07:59:09.144Z,0.05
2022-12-12T08:01:35.689Z,0.13
2022-12-12T08:04:02.269Z,0.23
2022-12-12T08:06:28.756Z,0.30
2022-12-12T08:08:56.388Z,0.17
2022-12-12T08:11:25.437Z,-0.00
2022-12-12T08:13:52.846Z,-0.01
2022-12-12T08:16:24.722Z,-0.02
2022-12-12T08:18:54.918Z,-0.13
2022-12-12T08:21:25.872Z,-0.00
2022-12-12T08:23:58.067Z,-0.03
2022-12-12T08:26:26.188Z,0.18
2022-12-12T08:28:54.934Z,0.22
2022-12-12T08:31:23.115Z,0.05
2022-12-12T08:36:35.722Z,0.11
2022-12-12T08:39:10.267Z,0.15
2022-12-12T08:41:41.292Z,0.21
2022-12-12T08:44:11.360Z,0.23
2022-12-12T08:46:39.050Z,0.23
2022-12-12T08:49:05.980Z,0.29
2022-12-12T08:51:32.464Z,0.25
2022-12-12T08:53:58.954Z,0.27
2022-12-12T08:56:25.523Z,0.36
2022-12-12T08:58:52.298Z,0.40
2022-12-12T09:01:23.529Z,0.41
2022-12-12T09:03:52.606Z,0.48
2022-12-12T09:06:20.451Z,0.60
2022-12-12T09:08:47.786Z,0.55
2022-12-12T09:11:14.999Z,0.47
2022-12-12T09:13:41.771Z,0.37
2022-12-12T09:16:10.185Z,0.19
2022-12-12T09:18:43.247Z,0.15
2022-12-12T09:21:14.588Z,0.23
2022-12-12T09:23:41.209Z,0.36
2022-12-12T09:26:09.562Z,0.48
2022-12-12T09:28:37.203Z,0.64
2022-12-12T09:31:06.496Z,0.77
2022-12-12T09:33:33.242Z,0.92
2022-12-12T09:36:02.890Z,0.93
2022-12-12T09:38:29.970Z,0.95
2022-12-12T09:41:20.842Z,0.90
2022-12-12T09:43:58.095Z,0.97
2022-12-12T09:46:42.329Z,1.14
2022-12-12T09:49:54.116Z,1.09
2022-12-12T09:52:35.865Z,1.04
2022-12-12T09:55:41.790Z,1.04
2022-12-12T09:58:53.858Z,1.10
2022-12-12T10:01:43.735Z,1.08
2022-12-12T10:04:24.689Z,0.86
2022-12-12T10:07:01.304Z,1.07
2022-12-12T10:09:51.750Z,1.14
2022-12-12T10:12:21.713Z,1.26
2022-12-12T10:14:56.877Z,1.27
2022-12-12T10:17:32.423Z,1.33
2022-12-12T10:20:17.115Z,1.24
2022-12-12T10:22:55.722Z,1.18
2022-12-12T10:25:56.424Z,1.13
2022-12-12T10:28:30.696Z,1.14
2022-12-12T10:31:30.239Z,1.22
2022-12-12T10:34:21.447Z,1.37
2022-12-12T10:37:48.186Z,1.28
2022-12-12T10:40:49.986Z,1.21
2022-12-12T10:43:32.301Z,1.25
2022-12-12T10:46:22.401Z,1.26
2022-12-12T10:48:49.876Z,1.42
2022-12-12T10:51:20.877Z,1.36
2022-12-12T10:53:47.323Z,1.30
2022-12-12T10:56:29.522Z,1.25
2022-12-12T10:59:00.093Z,1.16
2022-12-12T11:02:07.787Z,0.92
2022-12-12T11:04:17.791Z,0.86
2022-12-12T11:06:52.252Z,0.90
2022-12-12T11:09:23.883Z,0.98
2022-12-12T11:12:09.615Z,0.73
2022-12-12T11:14:48.200Z,0.60
2022-12-12T11:17:33.828Z,0.33
2022-12-12T11:20:07.354Z,0.46
2022-12-12T11:22:34.558Z,0.60
2022-12-12T11:25:01.158Z,0.78
2022-12-12T11:27:39.668Z,0.71
2022-12-12T11:30:21.099Z,0.56
2022-12-12T11:32:51.992Z,0.67
2022-12-12T11:35:47.043Z,0.68
2022-12-12T11:38:22.795Z,0.85
2022-12-12T11:41:06.356Z,1.10
2022-12-12T11:43:38.262Z,1.17
2022-12-12T11:46:16.636Z,1.07
2022-12-12T11:48:52.059Z,1.16
2022-12-12T11:51:44.378Z,1.27
2022-12-12T11:54:26.740Z,1.26
2022-12-12T11:57:03.197Z,1.17
2022-12-12T12:00:15.372Z,0.94
2022-12-12T12:03:21.054Z,0.88
2022-12-12T12:06:33.935Z,0.92
2022-12-12T12:09:38.388Z,0.93
2022-12-12T12:12:17.440Z,0.80
2022-12-12T12:15:37.792Z,0.69
2022-12-12T12:18:39.336Z,0.49
2022-12-12T12:21:13.705Z,0.37
2022-12-12T12:24:32.132Z,0.21
2022-12-12T12:27:18.465Z,0.11
2022-12-12T12:29:53.736Z,0.13
2022-12-12T12:32:44.503Z,0.24
2022-12-12T12:35:47.644Z,0.46
2022-12-12T12:39:03.415Z,0.67
2022-12-12T12:42:14.992Z,0.92
2022-12-12T12:45:02.966Z,1.13
2022-12-12T12:47:49.132Z,1.29
2022-12-12T12:50:31.414Z,1.28
2022-12-12T12:53:27.765Z,1.30
2022-12-12T12:56:01.251Z,1.38
2022-12-12T12:58:39.281Z,1.42
2022-12-12T13:01:13.388Z,1.52
2022-12-12T13:04:11.737Z,1.48
2022-12-12T13:06:53.684Z,1.47
2022-12-12T13:09:44.114Z,1.28
2022-12-12T13:12:33.249Z,1.17
2022-12-12T13:15:26.621Z,1.02
2022-12-12T13:18:10.599Z,1.07
2022-12-12T13:20:42.705Z,1.11
2022-12-12T13:23:52.271Z,1.03
2022-12-12T13:26:53.735Z,0.91
2022-12-12T13:29:34.942Z,0.86
2022-12-12T13:32:10.429Z,0.84
2022-12-12T13:34:50.245Z,0.74
2022-12-12T13:37:21.638Z,0.61
2022-12-12T13:40:06.936Z,0.56
2022-12-12T13:43:02.708Z,0.47
2022-12-12T13:45:43.954Z,0.42
2022-12-12T13:48:46.013Z,0.30
2022-12-12T13:51:28.383Z,0.17
2022-12-12T13:54:11.987Z,0.13
2022-12-12T13:57:11.504Z,0.08
2022-12-12T13:59:54.935Z,-0.09
2022-12-12T14:02:56.618Z,-0.20
2022-12-12T14:05:52.394Z,-0.32
2022-12-12T14:08:26.881Z,-0.32
2022-12-12T14:11:02.110Z,-0.16
2022-12-12T14:13:39.914Z,-0.13
2022-12-12T14:16:16.685Z,-0.13
2022-12-12T14:18:52.143Z,-0.27
2022-12-12T14:21:40.040Z,-0.21
2022-12-12T14:24:34.021Z,-0.18
2022-12-12T14:27:02.421Z,-0.09
2022-12-12T14:29:32.286Z,-0.18
2022-12-12T14:32:10.841Z,-0.25
2022-12-12T14:35:14.656Z,-0.27
2022-12-12T14:38:19.388Z,-0.27
2022-12-12T14:40:55.705Z,-0.35
2022-12-12T14:43:28.120Z,-0.55
2022-12-12T14:45:58.752Z,-0.51
2022-12-12T14:48:36.252Z,-0.46
2022-12-12T14:51:25.884Z,-0.63
2022-12-12T14:53:57.296Z,-0.75
2022-12-12T14:56:40.738Z,-0.71
2022-12-12T14:59:19.631Z,-0.74
2022-12-12T15:01:50.254Z,-0.68
2022-12-12T15:04:37.455Z,-0.66
2022-12-12T15:07:07.322Z,-0.96
2022-12-12T15:09:40.520Z,-1.01
2022-12-12T15:12:10.017Z,-1.17
2022-12-12T15:14:57.212Z,-1.19
2022-12-12T15:17:29.688Z,-1.42
2022-12-12T15:20:09.433Z,-1.22
2022-12-12T15:22:48.556Z,-1.14
2022-12-12T15:25:20.250Z,-1.21
2022-12-12T15:27:55.642Z,-1.27
2022-12-12T15:30:42.977Z,-1.57
2022-12-12T15:33:19.238Z,-1.67
2022-12-12T15:36:05.211Z,-1.73
2022-12-12T15:38:34.136Z,-1.64
2022-12-12T15:41:11.234Z,-1.59
2022-12-12T15:43:40.326Z,-1.60
2022-12-12T15:46:14.938Z,-1.59
2022-12-12T15:48:43.844Z,-1.78
2022-12-12T15:51:12.817Z,-1.82
2022-12-12T15:53:51.188Z,-1.82
2022-12-12T15:56:20.285Z,-2.05
2022-12-12T15:58:51.867Z,-2.23
2022-12-12T16:01:25.312Z,-2.27
2022-12-12T16:04:06.661Z,-2.22
2022-12-12T16:06:46.250Z,-2.15
2022-12-12T16:09:26.769Z,-2.33
2022-12-12T16:11:55.133Z,-2.31
2022-12-12T16:14:41.704Z,-2.43
2022-12-12T16:17:22.159Z,-2.74
2022-12-12T16:19:55.781Z,-2.51
2022-12-12T16:22:31.849Z,-2.27
2022-12-12T16:25:28.026Z,-2.32
2022-12-12T16:28:24.689Z,-2.34
2022-12-12T16:31:05.974Z,-2.15
2022-12-12T16:33:37.933Z,-1.97
2022-12-12T16:36:14.317Z,-1.95
2022-12-12T16:38:42.052Z,-1.99
2022-12-12T16:41:16.974Z,-2.08
2022-12-12T16:43:44.920Z,-2.13
2022-12-12T16:46:24.642Z,-2.16
2022-12-12T16:48:52.697Z,-2.11
2022-12-12T16:51:30.704Z,-2.11
2022-12-12T16:53:57.259Z,-2.12
2022-12-12T16:56:24.692Z,-2.24
2022-12-12T16:58:53.225Z,-2.26
2022-12-12T17:01:20.826Z,-2.25
2022-12-12T17:03:47.436Z,-2.21
2022-12-12T17:06:13.937Z,-2.14
2022-12-12T17:08:40.424Z,-2.03
2022-12-12T17:11:10.073Z,-2.03
2022-12-12T17:13:44.069Z,-2.25
2022-12-12T17:16:10.554Z,-2.30
2022-12-12T17:18:37.018Z,-2.40
2022-12-12T17:21:03.773Z,-2.33
2022-12-12T17:23:30.476Z,-2.20
2022-12-12T17:26:03.504Z,-2.14
2022-12-12T17:28:33.208Z,-2.12
2022-12-12T17:31:00.888Z,-2.17
2022-12-12T17:33:27.747Z,-2.20
2022-12-12T17:36:03.856Z,-2.41
2022-12-12T17:38:30.685Z,-2.52
2022-12-12T17:40:58.272Z,-2.74
2022-12-12T17:43:25.796Z,-2.76
2022-12-12T17:46:04.358Z,-2.85
2022-12-12T17:48:33.828Z,-2.87
2022-12-12T17:51:04.685Z,-2.89
2022-12-12T17:53:37.953Z,-2.95
2022-12-12T17:56:22.402Z,-2.93
2022-12-12T17:58:51.006Z,-2.86
2022-12-12T18:01:25.051Z,-2.86
2022-12-12T18:03:52.664Z,-2.96
2022-12-12T18:06:21.245Z,-3.06
2022-12-12T18:08:48.348Z,-3.10
2022-12-12T18:11:21.441Z,-3.05
2022-12-12T18:13:53.814Z,-3.07
2022-12-12T18:16:23.482Z,-3.01
2022-12-12T18:18:54.266Z,-3.08
2022-12-12T18:21:59.317Z,-3.20
2022-12-12T18:24:13.334Z,-3.20
2022-12-12T18:26:40.262Z,-3.41
2022-12-12T18:29:08.830Z,-3.55
2022-12-12T18:31:35.922Z,-3.50
2022-12-12T18:34:02.766Z,-3.37
2022-12-12T18:36:31.385Z,-3.28
2022-12-12T18:39:02.302Z,-3.25
2022-12-12T18:41:31.324Z,-3.43
2022-12-12T18:43:57.956Z,-3.45
2022-12-12T18:46:29.345Z,-3.39
2022-12-12T18:48:55.854Z,-3.48
2022-12-12T18:51:25.947Z,-3.69
2022-12-12T18:53:54.914Z,-3.80
2022-12-12T18:56:28.231Z,-3.83
2022-12-12T18:59:00.327Z,-3.87
2022-12-12T19:01:34.241Z,-3.85
2022-12-12T19:04:07.472Z,-3.75
2022-12-12T19:06:38.224Z,-3.68
2022-12-12T19:09:14.398Z,-3.80
2022-12-12T19:11:41.295Z,-3.77
2022-12-12T19:14:09.559Z,-3.79
2022-12-12T19:16:36.585Z,-3.88
2022-12-12T19:19:05.207Z,-4.07
2022-12-12T19:21:33.698Z,-4.17
2022-12-12T19:24:01.926Z,-4.22
2022-12-12T19:26:30.174Z,-4.38
2022-12-12T19:29:11.245Z,-4.45
2022-12-12T19:31:37.802Z,-4.35
2022-12-12T19:34:07.500Z,-4.37
2022-12-12T19:36:35.752Z,-4.38
2022-12-12T19:39:05.598Z,-4.38
2022-12-12T19:41:32.940Z,-4.44
2022-12-12T19:44:01.897Z,-4.47
2022-12-12T19:46:31.495Z,-4.36
2022-12-12T19:49:02.119Z,-4.29
2022-12-12T19:51:32.697Z,-4.20
2022-12-12T19:54:00.347Z,-4.20
2022-12-12T19:56:31.553Z,-4.35
2022-12-12T19:59:02.019Z,-4.54
2022-12-12T20:01:35.330Z,-4.72
2022-12-12T20:04:21.696Z,-4.88
2022-12-12T20:06:49.998Z,-4.99
2022-12-12T20:09:22.805Z,-5.02
2022-12-12T20:11:50.582Z,-4.95
2022-12-12T20:14:25.713Z,-5.04
2022-12-12T20:16:54.116Z,-5.16
2022-12-12T20:19:23.209Z,-5.11
2022-12-12T20:22:01.795Z,-4.95
2022-12-12T20:24:29.506Z,-4.96
2022-12-12T20:26:56.928Z,-5.14
2022-12-12T20:29:23.677Z,-5.10
2022-12-12T20:31:52.443Z,-4.99
2022-12-12T20:34:24.665Z,-4.84
2022-12-12T20:36:54.968Z,-4.83
2022-12-12T20:39:22.246Z,-4.95
2022-12-12T20:41:50.450Z,-5.02
2022-12-12T20:44:18.254Z,-4.92
2022-12-12T20:46:46.563Z,-4.84
2022-12-12T20:49:18.268Z,-4.95
2022-12-12T20:52:01.183Z,-5.02
2022-12-12T20:54:29.507Z,-5.29
2022-12-12T20:56:58.541Z,-5.38
2022-12-12T20:59:26.380Z,-5.56
2022-12-12T21:01:53.127Z,-5.60
2022-12-12T21:04:20.615Z,-5.71
2022-12-12T21:06:48.601Z,-5.68
2022-12-12T21:09:22.610Z,-5.58
2022-12-12T21:11:50.175Z,-5.60
2022-12-12T21:14:16.846Z,-5.64
2022-12-12T21:16:43.532Z,-5.65
2022-12-12T21:19:14.074Z,-5.64
2022-12-12T21:21:43.200Z,-5.61
2022-12-12T21:24:16.136Z,-5.51
2022-12-12T21:26:43.834Z,-5.36
2022-12-12T21:29:10.804Z,-5.30
2022-12-12T21:31:48.251Z,-5.40
2022-12-12T21:34:17.701Z,-5.42
2022-12-12T21:36:44.504Z,-5.38
2022-12-12T21:39:12.736Z,-5.39
2022-12-12T21:41:41.809Z,-5.41
2022-12-12T21:44:09.096Z,-5.62
2022-12-12T21:46:36.242Z,-5.65
2022-12-12T21:49:21.468Z,-5.77
2022-12-12T21:51:48.005Z,-5.97
2022-12-12T21:54:18.388Z,-5.83
2022-12-12T21:56:44.984Z,-5.67
2022-12-12T21:59:13.333Z,-5.58
2022-12-12T22:01:42.110Z,-5.68
2022-12-12T22:04:11.950Z,-5.65
2022-12-12T22:06:38.838Z,-5.83
2022-12-12T22:09:09.797Z,-6.13
2022-12-12T22:11:42.248Z,-6.10
2022-12-12T22:14:18.627Z,-5.94
2022-12-12T22:16:45.461Z,-5.94
2022-12-12T22:19:14.378Z,-6.10
2022-12-12T22:21:43.690Z,-6.25
2022-12-12T22:24:10.277Z,-6.27
2022-12-12T22:26:40.958Z,-6.26
2022-12-12T22:29:12.076Z,-6.12
2022-12-12T22:31:40.328Z,-5.97
2022-12-12T22:34:12.401Z,-5.82
2022-12-12T22:36:40.325Z,-5.89
2022-12-12T22:39:13.830Z,-6.01
2022-12-12T22:41:40.312Z,-6.01
2022-12-12T22:44:07.712Z,-6.08
2022-12-12T22:46:36.947Z,-6.15
2022-12-12T22:49:05.786Z,-6.16
2022-12-12T22:51:33.936Z,-6.16
2022-12-12T22:54:05.184Z,-6.19
2022-12-12T22:56:35.818Z,-6.12
2022-12-12T22:59:03.716Z,-6.00
2022-12-12T23:01:31.215Z,-5.96
2022-12-12T23:03:58.870Z,-6.08
2022-12-12T23:06:30.637Z,-6.15
2022-12-12T23:09:04.562Z,-6.13
2022-12-12T23:11:32.456Z,-6.37
2022-12-12T23:14:06.665Z,-6.51
2022-12-12T23:16:35.595Z,-6.63
2022-12-12T23:19:04.951Z,-6.71
2022-12-12T23:21:32.077Z,-6.76
2022-12-12T23:23:58.620Z,-6.70
2022-12-12T23:26:29.913Z,-6.68
2022-12-12T23:28:58.713Z,-6.64
2022-12-12T23:31:32.990Z,-6.70
2022-12-12T23:34:04.008Z,-6.53
2022-12-12T23:36:31.622Z,-6.41
2022-12-12T23:39:01.830Z,-6.61
2022-12-12T23:41:29.254Z,-6.75
2022-12-12T23:43:56.685Z,-6.79
2022-12-12T23:46:30.963Z,-6.80
2022-12-12T23:49:08.915Z,-6.70
2022-12-12T23:51:43.103Z,-6.54
2022-12-12T23:54:15.918Z,-6.64
2022-12-12T23:56:43.209Z,-6.58
2022-12-12T23:59:14.116Z,-6.58
